createdAt,value
2023-01-02T00:01:27.719Z,52.00
2023-01-02T00:03:57.246Z,57.40
2023-01-02T00:06:26.252Z,55.42
2023-01-02T00:08:54.332Z,55.88
2023-01-02T00:11:22.734Z,44.90
2023-01-02T00:13:50.872Z,50.55
2023-01-02T00:16:19.238Z,45.00
2023-01-02T00:18:48.397Z,47.20
2023-01-02T00:21:18.731Z,50.63
2023-01-02T00:23:47.259Z,48.78
2023-01-02T00:26:15.604Z,65.78
2023-01-02T00:28:43.797Z,73.75
2023-01-02T00:31:15.036Z,46.38
2023-01-02T00:33:43.360Z,93.80
2023-01-02T00:36:13.930Z,90.13
2023-01-02T00:38:42.406Z,128.43
2023-01-02T00:41:11.019Z,129.70
2023-01-02T00:43:39.264Z,138.43
2023-01-02T00:46:11.612Z,143.57
2023-01-02T00:48:40.940Z,131.23
2023-01-02T00:51:09.704Z,126.18
2023-01-02T00:53:38.686Z,112.43
2023-01-02T00:56:07.355Z,103.68
2023-01-02T00:58:36.047Z,103.50
2023-01-02T01:01:05.269Z,98.35
2023-01-02T01:03:33.807Z,100.63
2023-01-02T01:06:08.114Z,98.63
2023-01-02T01:08:37.683Z,92.90
2023-01-02T01:11:11.806Z,96.53
2023-01-02T01:13:40.404Z,98.03
2023-01-02T01:16:12.517Z,92.75
2023-01-02T01:18:40.970Z,94.43
2023-01-02T01:21:17.852Z,94.30
2023-01-02T01:23:50.621Z,91.63
2023-01-02T01:26:19.330Z,87.10
2023-01-02T01:28:47.890Z,89.53
2023-01-02T01:31:17.267Z,85.13
2023-01-02T01:33:46.383Z,83.63
2023-01-02T01:36:24.936Z,79.90
2023-01-02T01:38:53.372Z,72.90
2023-01-02T01:41:24.217Z,70.20
2023-01-02T01:43:54.325Z,66.70
2023-01-02T01:46:25.595Z,65.05
2023-01-02T01:49:16.747Z,60.70
2023-01-02T01:52:13.049Z,59.05
2023-01-02T01:54:52.677Z,53.30
2023-01-02T01:57:38.472Z,52.38
2023-01-02T02:00:07.626Z,51.38
2023-01-02T02:02:36.991Z,48.65
2023-01-02T02:05:06.840Z,43.78
2023-01-02T02:07:39.861Z,41.67
2023-01-02T02:10:10.401Z,41.83
2023-01-02T02:12:38.601Z,44.30
2023-01-02T02:15:10.535Z,47.42
2023-01-02T02:17:57.145Z,58.72
2023-01-02T02:20:50.859Z,63.60
2023-01-02T02:23:35.799Z,63.08
2023-01-02T02:26:35.157Z,61.65
2023-01-02T02:29:34.179Z,53.22
2023-01-02T02:32:16.159Z,50.40
2023-01-02T02:35:19.464Z,47.65
2023-01-02T02:38:09.853Z,45.30
2023-01-02T02:41:09.750Z,43.65
2023-01-02T02:44:02.455Z,39.90
2023-01-02T02:46:57.896Z,39.90
2023-01-02T02:49:32.150Z,35.42
2023-01-02T02:52:22.029Z,33.17
2023-01-02T02:55:13.685Z,30.35
2023-01-02T02:57:43.320Z,32.77
2023-01-02T03:00:15.761Z,29.27
2023-01-02T03:02:44.318Z,27.52
2023-01-02T03:05:35.931Z,27.90
2023-01-02T03:08:38.401Z,27.13
2023-01-02T03:11:07.007Z,27.23
2023-01-02T03:13:57.495Z,27.40
2023-01-02T03:16:44.372Z,25.92
2023-01-02T03:19:20.928Z,27.25
2023-01-02T03:21:59.611Z,27.52
2023-01-02T03:24:29.626Z,26.13
2023-01-02T03:27:04.536Z,26.98
2023-01-02T03:29:47.093Z,27.73
2023-01-02T03:32:24.198Z,26.92
2023-01-02T03:34:53.757Z,27.00
2023-01-02T03:37:27.222Z,27.77
2023-01-02T03:40:00.005Z,25.85
2023-01-02T03:42:37.658Z,28.30
2023-01-02T03:45:22.589Z,25.77
2023-01-02T03:48:02.501Z,26.15
2023-01-02T03:50:37.322Z,26.92
2023-01-02T03:53:05.726Z,26.92
2023-01-02T03:55:37.465Z,27.05
2023-01-02T03:58:13.293Z,27.48
2023-01-02T04:00:53.390Z,27.20
2023-01-02T04:03:50.767Z,30.08
2023-01-02T04:06:25.286Z,33.20
2023-01-02T04:09:10.148Z,33.72
2023-01-02T04:11:43.192Z,34.00
2023-01-02T04:14:20.994Z,31.92
2023-01-02T04:16:51.428Z,31.73
2023-01-02T04:19:29.417Z,28.67
2023-01-02T04:22:02.535Z,27.73
2023-01-02T04:24:34.631Z,27.10
2023-01-02T04:27:14.470Z,27.02
2023-01-02T04:29:42.730Z,26.55
2023-01-02T04:32:36.376Z,26.08
2023-01-02T04:35:10.963Z,24.33
2023-01-02T04:37:41.700Z,25.52
2023-01-02T04:40:31.428Z,25.52
2023-01-02T04:42:59.612Z,27.42
2023-01-02T04:45:27.813Z,26.02
2023-01-02T04:47:56.123Z,26.60
2023-01-02T04:50:24.277Z,25.17
2023-01-02T04:52:52.567Z,24.88
2023-01-02T04:55:20.889Z,24.58
2023-01-02T04:57:49.086Z,24.67
2023-01-02T05:00:17.578Z,24.88
2023-01-02T05:02:46.003Z,25.30
2023-01-02T05:05:14.250Z,25.52
2023-01-02T05:07:42.342Z,23.63
2023-01-02T05:10:10.974Z,23.40
2023-01-02T05:12:40.031Z,23.48
2023-01-02T05:15:10.224Z,23.52
2023-01-02T05:17:42.854Z,23.80
2023-01-02T05:20:13.536Z,23.67
2023-01-02T05:22:43.212Z,23.88
2023-01-02T05:25:11.409Z,24.42
2023-01-02T05:27:39.547Z,22.35
2023-01-02T05:30:08.618Z,24.70
2023-01-02T05:32:36.947Z,23.48
2023-01-02T05:35:05.922Z,23.73
2023-01-02T05:37:34.136Z,23.35
2023-01-02T05:40:02.467Z,24.88
2023-01-02T05:42:30.778Z,22.60
2023-01-02T05:44:58.949Z,24.33
2023-01-02T05:47:27.341Z,23.23
2023-01-02T05:49:55.492Z,24.25
2023-01-02T05:52:23.705Z,22.35
2023-01-02T05:54:51.899Z,23.95
2023-01-02T05:57:20.214Z,23.27
2023-01-02T05:59:48.393Z,23.23
2023-01-02T06:02:16.615Z,22.33
2023-01-02T06:04:44.950Z,22.33
2023-01-02T06:07:13.331Z,24.33
2023-01-02T06:09:41.523Z,24.38
2023-01-02T06:12:09.749Z,23.20
2023-01-02T06:14:37.911Z,25.83
2023-01-02T06:17:06.266Z,26.08
2023-01-02T06:19:34.299Z,26.42
2023-01-02T06:22:02.635Z,26.55
2023-01-02T06:24:30.821Z,26.65
2023-01-02T06:26:59.136Z,26.23
2023-01-02T06:29:27.336Z,25.60
2023-01-02T06:31:56.039Z,28.00
2023-01-02T06:34:24.275Z,26.20
2023-01-02T06:36:52.569Z,28.25
2023-01-02T06:39:20.849Z,28.63
2023-01-02T06:41:49.243Z,27.27
2023-01-02T06:44:17.455Z,27.60
2023-01-02T06:46:45.710Z,27.00
2023-01-02T06:49:13.781Z,28.05
2023-01-02T06:51:42.065Z,29.33
2023-01-02T06:54:10.160Z,25.38
2023-01-02T06:56:38.304Z,24.33
2023-01-02T06:59:06.554Z,26.92
2023-01-02T07:01:34.862Z,24.70
2023-01-02T07:04:03.117Z,23.75
2023-01-02T07:06:31.451Z,23.90
2023-01-02T07:08:59.564Z,22.25
2023-01-02T07:11:27.861Z,21.55
2023-01-02T07:13:57.061Z,21.40
2023-01-02T07:16:25.716Z,21.00
2023-01-02T07:18:55.169Z,21.25
2023-01-02T07:21:23.667Z,23.13
2023-01-02T07:23:51.891Z,21.30
2023-01-02T07:26:20.372Z,24.27
2023-01-02T07:28:48.738Z,22.67
2023-01-02T07:31:19.147Z,23.40
2023-01-02T07:33:47.777Z,23.35
2023-01-02T07:36:18.631Z,23.52
2023-01-02T07:38:51.813Z,21.90
2023-01-02T07:41:25.187Z,22.02
2023-01-02T07:43:55.569Z,22.95
2023-01-02T07:46:24.781Z,23.15
2023-01-02T07:48:53.196Z,21.55
2023-01-02T07:51:27.065Z,24.85
2023-01-02T07:53:58.640Z,23.52
2023-01-02T07:56:27.386Z,23.80
2023-01-02T07:58:55.579Z,23.80
2023-01-02T08:01:24.274Z,20.98
2023-01-02T08:03:52.867Z,22.67
2023-01-02T08:06:21.237Z,21.67
2023-01-02T08:08:50.094Z,23.45
2023-01-02T08:11:21.486Z,22.88
2023-01-02T08:13:50.519Z,21.20
2023-01-02T08:16:22.860Z,21.13
2023-01-02T08:18:54.931Z,22.10
2023-01-02T08:21:27.364Z,21.38
2023-01-02T08:23:55.719Z,21.77
2023-01-02T08:26:23.879Z,22.75
2023-01-02T08:28:52.314Z,22.33
2023-01-02T08:31:22.452Z,23.73
2023-01-02T08:33:50.744Z,22.20
2023-01-02T08:36:19.951Z,23.52
2023-01-02T08:38:48.193Z,22.75
2023-01-02T08:41:16.319Z,20.17
2023-01-02T08:43:44.671Z,20.55
2023-01-02T08:46:12.804Z,21.75
2023-01-02T08:48:41.117Z,21.70
2023-01-02T08:51:10.297Z,22.75
2023-01-02T08:53:38.515Z,20.98
2023-01-02T08:56:30.350Z,19.88
2023-01-02T08:59:04.750Z,22.23
2023-01-02T09:01:33.926Z,23.00
2023-01-02T09:04:09.355Z,21.83
2023-01-02T09:06:40.448Z,23.17
2023-01-02T09:09:12.418Z,22.05
2023-01-02T09:11:53.701Z,23.13
2023-01-02T09:14:23.312Z,24.23
2023-01-02T09:16:53.178Z,23.98
2023-01-02T09:19:21.417Z,22.92
2023-01-02T09:21:49.598Z,24.02
2023-01-02T09:24:17.898Z,22.98
2023-01-02T09:26:46.369Z,23.50
2023-01-02T09:29:15.410Z,25.50
2023-01-02T09:31:44.055Z,24.92
2023-01-02T09:34:12.703Z,25.20
2023-01-02T09:36:41.019Z,26.83
2023-01-02T09:39:09.519Z,24.70
2023-01-02T09:41:44.296Z,22.70
2023-01-02T09:44:21.371Z,27.75
2023-01-02T09:47:03.434Z,27.55
2023-01-02T09:49:37.412Z,28.90
2023-01-02T09:52:08.685Z,27.08
2023-01-02T09:54:36.942Z,25.33
2023-01-02T09:57:27.822Z,25.02
2023-01-02T10:00:05.312Z,32.83
2023-01-02T10:03:12.930Z,25.42
2023-01-02T10:05:41.378Z,25.95
2023-01-02T10:08:37.254Z,27.48
2023-01-02T10:11:29.651Z,28.38
2023-01-02T10:16:56.717Z,27.92
2023-01-02T10:19:43.140Z,26.25
2023-01-02T10:22:21.250Z,24.90
2023-01-02T10:25:16.999Z,24.88
2023-01-02T10:27:56.313Z,25.95
2023-01-02T10:30:29.930Z,26.27
2023-01-02T10:33:19.225Z,22.13
2023-01-02T10:36:05.547Z,23.92
2023-01-02T10:38:39.285Z,24.15
2023-01-02T10:41:07.843Z,35.83
2023-01-02T10:43:36.028Z,31.55
2023-01-02T10:46:05.324Z,35.00
2023-01-02T10:48:37.240Z,22.40
2023-01-02T10:51:11.675Z,26.60
2023-01-02T10:53:40.285Z,23.90
2023-01-02T10:56:18.673Z,35.88
2023-01-02T10:58:51.805Z,23.00
2023-01-02T11:01:22.131Z,35.63
2023-01-02T11:04:11.414Z,25.45
2023-01-02T11:07:06.110Z,25.33
2023-01-02T11:09:35.876Z,53.58
2023-01-02T11:12:13.343Z,66.40
2023-01-02T11:14:42.177Z,29.70
2023-01-02T11:17:22.222Z,22.25
2023-01-02T11:19:58.068Z,74.50
2023-01-02T11:22:36.730Z,52.38
2023-01-02T11:25:08.734Z,37.20
2023-01-02T11:30:08.756Z,47.60
2023-01-02T11:32:39.988Z,29.95
2023-01-02T11:35:46.390Z,41.33
2023-01-02T11:38:28.767Z,48.22
2023-01-02T11:41:01.748Z,50.33
2023-01-02T11:43:45.366Z,31.92
2023-01-02T11:46:32.625Z,33.70
2023-01-02T11:49:12.962Z,64.63
2023-01-02T11:51:42.451Z,33.25
2023-01-02T11:54:20.240Z,35.53
2023-01-02T11:56:50.388Z,45.47
2023-01-02T11:59:40.492Z,20.15
2023-01-02T12:02:15.172Z,18.63
2023-01-02T12:04:43.499Z,34.75
2023-01-02T12:07:23.258Z,19.60
2023-01-02T12:10:28.408Z,33.80
2023-01-02T12:13:30.204Z,48.97
2023-01-02T12:16:14.088Z,24.17
2023-01-02T12:18:48.427Z,19.42
2023-01-02T12:21:33.853Z,19.33
2023-01-02T12:24:14.218Z,44.45
2023-01-02T12:26:45.551Z,20.85
2023-01-02T12:29:47.117Z,18.75
2023-01-02T12:32:29.397Z,20.45
2023-01-02T12:35:03.791Z,19.60
2023-01-02T12:37:57.507Z,20.35
2023-01-02T12:40:56.866Z,21.05
2023-01-02T12:44:07.427Z,19.55
2023-01-02T12:46:35.587Z,19.52
2023-01-02T12:49:22.413Z,31.77
2023-01-02T12:52:40.295Z,21.88
2023-01-02T12:55:33.268Z,29.23
2023-01-02T12:58:28.854Z,22.55
2023-01-02T13:01:16.946Z,24.73
2023-01-02T13:04:00.005Z,24.65
2023-01-02T13:06:54.055Z,30.23
2023-01-02T13:09:28.362Z,28.75
2023-01-02T13:12:02.390Z,21.08
2023-01-02T13:14:54.320Z,23.50
2023-01-02T13:17:34.826Z,25.38
2023-01-02T13:20:26.342Z,35.63
2023-01-02T13:23:27.915Z,37.20
2023-01-02T13:26:13.098Z,33.73
2023-01-02T13:28:53.188Z,35.80
2023-01-02T13:34:31.621Z,30.50
2023-01-02T13:37:07.659Z,19.85
2023-01-02T13:39:42.064Z,25.80
2023-01-02T13:42:23.254Z,26.48
2023-01-02T13:44:54.621Z,22.57
2023-01-02T13:47:39.106Z,39.15
2023-01-02T13:50:16.442Z,25.35
2023-01-02T13:53:10.626Z,30.30
2023-01-02T13:55:38.807Z,18.92
2023-01-02T13:58:38.509Z,20.60
2023-01-02T14:01:24.948Z,22.40
2023-01-02T14:04:08.456Z,24.20
2023-01-02T14:06:39.578Z,20.42
2023-01-02T14:09:22.035Z,31.47
2023-01-02T14:11:55.300Z,21.13
2023-01-02T14:14:33.696Z,23.20
2023-01-02T14:17:38.327Z,20.58
2023-01-02T14:20:18.920Z,19.05
2023-01-02T14:22:54.203Z,28.08
2023-01-02T14:25:23.305Z,23.10
2023-01-02T14:28:02.728Z,24.38
2023-01-02T14:30:42.135Z,24.10
2023-01-02T14:33:22.565Z,23.05
2023-01-02T14:35:54.406Z,21.60
2023-01-02T14:40:55.453Z,22.92
2023-01-02T14:43:35.496Z,17.65
2023-01-02T14:46:24.425Z,20.00
2023-01-02T14:49:26.100Z,20.58
2023-01-02T14:52:06.620Z,23.60
2023-01-02T14:54:42.850Z,31.73
2023-01-02T14:57:35.474Z,20.33
2023-01-02T15:00:10.649Z,16.80
2023-01-02T15:02:46.515Z,20.80
2023-01-02T15:05:23.344Z,16.70
2023-01-02T15:07:55.145Z,24.65
2023-01-02T15:10:24.552Z,19.08
2023-01-02T15:12:54.162Z,25.33
2023-01-02T15:15:27.325Z,18.23
2023-01-02T15:18:01.951Z,17.98
2023-01-02T15:20:30.905Z,17.80
2023-01-02T15:22:59.523Z,20.83
2023-01-02T15:25:38.880Z,22.50
2023-01-02T15:28:22.465Z,18.35
2023-01-02T15:31:16.498Z,19.63
2023-01-02T15:33:51.446Z,19.50
2023-01-02T15:36:40.372Z,19.80
2023-01-02T15:39:22.677Z,21.08
2023-01-02T15:41:57.457Z,19.20
2023-01-02T15:44:28.810Z,18.45
2023-01-02T15:49:26.580Z,18.73
2023-01-02T15:51:55.276Z,20.42
2023-01-02T15:54:23.689Z,21.77
2023-01-02T15:56:52.524Z,18.65
2023-01-02T15:59:30.550Z,20.85
2023-01-02T16:01:58.938Z,18.70
2023-01-02T16:04:32.696Z,21.42
2023-01-02T16:07:15.369Z,24.13
2023-01-02T16:09:51.940Z,26.52
2023-01-02T16:12:22.568Z,18.40
2023-01-02T16:14:55.940Z,27.25
2023-01-02T16:17:28.220Z,18.85
2023-01-02T16:20:32.859Z,21.23
2023-01-02T16:23:06.023Z,19.58
2023-01-02T16:25:37.632Z,22.10
2023-01-02T16:28:33.945Z,19.63
2023-01-02T16:31:20.180Z,37.50
2023-01-02T16:33:49.180Z,18.80
2023-01-02T16:36:22.199Z,19.70
2023-01-02T16:38:54.731Z,21.85
2023-01-02T16:41:29.017Z,24.30
2023-01-02T16:43:57.350Z,24.98
2023-01-02T16:46:27.459Z,36.00
2023-01-02T16:49:02.922Z,34.25
2023-01-02T16:51:34.020Z,43.85
2023-01-02T16:54:02.187Z,29.70
2023-01-02T16:56:30.319Z,46.63
2023-01-02T16:58:58.616Z,33.08
2023-01-02T17:01:27.007Z,54.25
2023-01-02T17:03:55.162Z,40.63
2023-01-02T17:06:23.506Z,36.17
2023-01-02T17:08:52.072Z,46.67
2023-01-02T17:11:22.952Z,37.05
2023-01-02T17:13:52.842Z,38.95
2023-01-02T17:16:21.273Z,32.15
2023-01-02T17:18:49.492Z,38.30
2023-01-02T17:21:17.854Z,44.97
2023-01-02T17:23:46.107Z,36.45
2023-01-02T17:26:14.405Z,42.17
2023-01-02T17:28:42.682Z,45.38
2023-01-02T17:31:15.261Z,28.25
2023-01-02T17:33:43.559Z,29.80
2023-01-02T17:36:11.929Z,33.63
2023-01-02T17:38:40.215Z,31.92
2023-01-02T17:41:08.410Z,25.10
2023-01-02T17:43:36.815Z,26.40
2023-01-02T17:46:38.673Z,31.02
2023-01-02T17:51:25.285Z,43.17
2023-01-02T17:53:55.367Z,30.85
2023-01-02T17:56:23.693Z,37.97
2023-01-02T17:58:52.223Z,55.42
2023-01-02T18:01:21.921Z,48.08
2023-01-02T18:03:50.536Z,39.05
2023-01-02T18:06:19.367Z,29.27
2023-01-02T18:08:47.628Z,48.38
2023-01-02T18:11:17.007Z,36.33
2023-01-02T18:13:57.061Z,38.53
2023-01-02T18:16:30.570Z,45.33
2023-01-02T18:18:59.631Z,42.63
2023-01-02T18:21:30.896Z,49.97
2023-01-02T18:24:02.177Z,33.78
2023-01-02T18:26:32.180Z,66.80
2023-01-02T18:29:09.351Z,41.90
2023-01-02T18:31:43.640Z,48.35
2023-01-02T18:37:24.251Z,36.97
2023-01-02T18:39:53.764Z,33.58
2023-01-02T18:42:27.445Z,59.10
2023-01-02T18:44:59.040Z,41.92
2023-01-02T18:47:32.566Z,63.67
2023-01-02T18:50:10.083Z,39.97
2023-01-02T18:52:43.292Z,46.33
2023-01-02T18:55:11.629Z,96.22
2023-01-02T18:57:48.418Z,41.75
2023-01-02T19:00:31.285Z,56.65
2023-01-02T19:03:23.639Z,100.38
2023-01-02T19:08:25.263Z,58.95
2023-01-02T19:10:56.506Z,46.47
2023-01-02T19:13:35.688Z,44.30
2023-01-02T19:16:06.185Z,38.53
2023-01-02T19:18:40.201Z,49.08
2023-01-02T19:21:29.970Z,63.85
2023-01-02T19:24:03.161Z,58.33
2023-01-02T19:26:44.592Z,68.30
2023-01-02T19:29:12.969Z,64.80
2023-01-02T19:32:02.424Z,32.15
2023-01-02T19:34:48.146Z,48.15
2023-01-02T19:37:25.053Z,54.30
2023-01-02T19:39:55.979Z,58.45
2023-01-02T19:42:26.404Z,57.95
2023-01-02T19:45:03.370Z,51.70
2023-01-02T19:47:34.176Z,48.03
2023-01-02T19:50:03.002Z,46.92
2023-01-02T19:52:31.267Z,44.00
2023-01-02T19:54:59.688Z,48.75
2023-01-02T19:57:28.014Z,40.03
2023-01-02T19:59:56.565Z,55.85
2023-01-02T20:02:26.114Z,54.97
2023-01-02T20:04:55.515Z,52.45
2023-01-02T20:07:25.556Z,53.05
2023-01-02T20:09:54.202Z,44.83
2023-01-02T20:12:22.879Z,35.10
2023-01-02T20:14:51.355Z,36.08
2023-01-02T20:17:20.095Z,38.25
2023-01-02T20:19:48.829Z,40.58
2023-01-02T20:22:19.245Z,38.58
2023-01-02T20:24:47.911Z,41.63
2023-01-02T20:27:16.234Z,41.85
2023-01-02T20:29:44.623Z,42.85
2023-01-02T20:32:12.783Z,39.05
2023-01-02T20:34:41.353Z,38.25
2023-01-02T20:37:11.095Z,37.72
2023-01-02T20:39:39.378Z,33.08
2023-01-02T20:42:13.095Z,36.53
2023-01-02T20:44:42.368Z,36.90
2023-01-02T20:47:11.292Z,36.20
2023-01-02T20:49:40.731Z,37.33
2023-01-02T20:52:09.542Z,37.10
2023-01-02T20:54:37.908Z,40.13
2023-01-02T20:57:06.357Z,44.10
2023-01-02T20:59:34.638Z,43.03
2023-01-02T21:02:03.173Z,42.92
2023-01-02T21:04:36.435Z,46.70
2023-01-02T21:07:06.546Z,47.50
2023-01-02T21:09:36.908Z,55.08
2023-01-02T21:12:05.419Z,46.75
2023-01-02T21:14:37.531Z,41.88
2023-01-02T21:17:06.405Z,37.40
2023-01-02T21:19:34.688Z,37.92
2023-01-02T21:22:03.072Z,38.20
2023-01-02T21:24:31.321Z,36.50
2023-01-02T21:26:59.576Z,38.60
2023-01-02T21:29:28.050Z,41.05
2023-01-02T21:31:56.470Z,41.75
2023-01-02T21:34:27.771Z,39.63
2023-01-02T21:36:56.244Z,40.47
2023-01-02T21:39:24.592Z,39.00
2023-01-02T21:41:52.802Z,39.17
2023-01-02T21:44:21.249Z,40.05
2023-01-02T21:46:49.550Z,38.10
2023-01-02T21:49:17.940Z,38.08
2023-01-02T21:51:46.259Z,37.95
2023-01-02T21:54:14.626Z,31.73
2023-01-02T21:56:43.881Z,38.63
2023-01-02T21:59:12.255Z,35.17
2023-01-02T22:01:41.619Z,34.08
2023-01-02T22:04:10.163Z,30.13
2023-01-02T22:06:45.662Z,30.10
2023-01-02T22:09:25.366Z,27.42
2023-01-02T22:11:53.636Z,30.55
2023-01-02T22:14:23.563Z,31.05
2023-01-02T22:16:52.024Z,26.90
2023-01-02T22:19:21.048Z,28.33
2023-01-02T22:21:49.910Z,29.48
2023-01-02T22:24:18.768Z,32.17
2023-01-02T22:26:48.938Z,33.38
2023-01-02T22:29:19.655Z,31.55
2023-01-02T22:31:50.147Z,30.80
2023-01-02T22:34:23.559Z,29.13
2023-01-02T22:36:52.155Z,28.98
2023-01-02T22:39:28.939Z,24.98
2023-01-02T22:42:01.704Z,28.00
2023-01-02T22:44:31.499Z,26.70
2023-01-02T22:46:59.942Z,26.38
2023-01-02T22:49:29.288Z,28.00
2023-01-02T22:52:06.967Z,28.48
2023-01-02T22:54:35.736Z,29.63
2023-01-02T22:57:09.162Z,29.33
2023-01-02T22:59:37.621Z,29.00
2023-01-02T23:02:09.239Z,27.45
2023-01-02T23:04:37.545Z,29.33
2023-01-02T23:07:23.372Z,31.45
2023-01-02T23:09:52.325Z,28.98
2023-01-02T23:12:20.739Z,27.40
2023-01-02T23:14:49.017Z,30.00
2023-01-02T23:17:17.276Z,32.75
2023-01-02T23:19:45.597Z,30.20
2023-01-02T23:22:13.762Z,32.17
2023-01-02T23:24:42.031Z,32.60
2023-01-02T23:27:12.934Z,30.05
2023-01-02T23:29:41.621Z,29.67
2023-01-02T23:32:10.181Z,27.45
2023-01-02T23:34:38.370Z,28.05
2023-01-02T23:37:06.991Z,27.17
2023-01-02T23:39:37.140Z,27.38
2023-01-02T23:42:05.609Z,28.05
2023-01-02T23:44:33.694Z,30.80
2023-01-02T23:47:08.841Z,32.22
2023-01-02T23:49:38.472Z,32.97
2023-01-02T23:52:07.058Z,37.80
2023-01-02T23:54:35.382Z,36.42
2023-01-02T23:57:03.749Z,35.00
2023-01-02T23:59:32.094Z,34.05
